Time;durP1;ratioP1;P1;durP2;ratioP2;P2;SDS_P1;SDS_P2;PMS_P1;PMS_P2;Temp;Humidity;BMP_temperature;BMP_pressure;BME280_temperature;BME280_humidity;BME280_pressure;Samples;Min_cycle;Max_cycle;Signal;HPM_P1;HPM_P2
2024/04/07 00:02:03;;;;;;;0.57;0.50;;;21.00;45.10;;;;;;5093324;28;20028;-42
2024/04/07 00:04:29;;;;;;;0.50;0.40;;;20.90;45.00;;;;;;5093437;28;20080;-44
2024/04/07 00:06:55;;;;;;;0.98;0.60;;;20.90;44.90;;;;;;5089247;28;20045;-43
2024/04/07 00:09:22;;;;;;;0.60;0.47;;;20.90;44.90;;;;;;5069500;28;20101;-43
2024/04/07 00:11:48;;;;;;;0.47;0.40;;;20.90;44.70;;;;;;5070151;28;20025;-43
2024/04/07 00:14:15;;;;;;;0.60;0.40;;;20.90;44.90;;;;;;5068078;28;20083;-45
2024/04/07 00:16:41;;;;;;;1.10;0.57;;;20.90;44.80;;;;;;5071796;28;20032;-43
2024/04/07 00:19:09;;;;;;;0.40;0.32;;;20.90;44.80;;;;;;5069078;28;20044;-47
2024/04/07 00:21:35;;;;;;;0.55;0.40;;;20.80;44.80;;;;;;5070769;28;20055;-45
2024/04/07 00:24:01;;;;;;;0.77;0.50;;;20.80;45.00;;;;;;5070869;28;20034;-44
2024/04/07 00:26:27;;;;;;;0.85;0.50;;;20.80;45.10;;;;;;5064074;28;20121;-43
2024/04/07 00:28:54;;;;;;;0.73;0.40;;;20.80;45.00;;;;;;5070731;28;20066;-43
2024/04/07 00:31:22;;;;;;;0.75;0.55;;;20.80;45.10;;;;;;5067178;28;20438;-43
2024/04/07 00:33:48;;;;;;;0.98;0.57;;;20.70;45.00;;;;;;5075654;28;20047;-49
2024/04/07 00:36:15;;;;;;;0.77;0.63;;;20.70;45.00;;;;;;5070367;28;20202;-43
2024/04/07 00:38:41;;;;;;;0.85;0.50;;;20.70;45.00;;;;;;5069803;28;20033;-43
2024/04/07 00:41:10;;;;;;;0.85;0.52;;;20.70;45.00;;;;;;5065768;28;20051;-43
2024/04/07 00:43:40;;;;;;;0.60;0.60;;;20.60;44.90;;;;;;5075269;28;20695;-44
2024/04/07 00:46:08;;;;;;;1.02;0.50;;;20.60;44.90;;;;;;5075062;28;20045;-44
2024/04/07 00:48:35;;;;;;;0.93;0.60;;;20.60;44.90;;;;;;5086112;28;20043;-45
2024/04/07 00:51:02;;;;;;;0.40;0.40;;;20.60;44.90;;;;;;5082746;28;20036;-44
2024/04/07 00:53:28;;;;;;;0.63;0.57;;;20.60;45.10;;;;;;5081465;28;20024;-42
2024/04/07 00:55:55;;;;;;;0.73;0.52;;;20.60;45.00;;;;;;5090506;28;20044;-47
2024/04/07 00:58:21;;;;;;;1.00;0.60;;;20.50;45.10;;;;;;5085343;28;20024;-46
2024/04/07 01:00:47;;;;;;;0.73;0.50;;;20.50;45.00;;;;;;5080410;28;20048;-47
2024/04/07 01:03:15;;;;;;;1.10;0.70;;;20.50;45.10;;;;;;5091708;28;20477;-47
2024/04/07 01:05:42;;;;;;;0.85;0.60;;;20.50;45.00;;;;;;5083471;28;20025;-45
2024/04/07 01:08:13;;;;;;;0.85;0.50;;;20.40;45.00;;;;;;5087162;28;20033;-48
2024/04/07 01:10:42;;;;;;;0.82;0.60;;;20.40;45.10;;;;;;5053263;28;20029;-46
2024/04/07 01:13:09;;;;;;;1.25;0.73;;;20.40;45.10;;;;;;5091158;28;20131;-45
2024/04/07 01:15:36;;;;;;;0.65;0.45;;;20.40;45.10;;;;;;5088177;28;20040;-48
2024/04/07 01:18:06;;;;;;;0.93;0.70;;;20.30;45.10;;;;;;5076746;28;20029;-47
2024/04/07 01:20:34;;;;;;;1.13;0.60;;;20.30;45.20;;;;;;5092637;28;20032;-47
2024/04/07 01:23:01;;;;;;;1.33;0.70;;;20.30;45.20;;;;;;5077339;28;20024;-48
2024/04/07 01:25:28;;;;;;;0.68;0.52;;;20.30;45.20;;;;;;5076284;28;20097;-49
2024/04/07 01:27:56;;;;;;;0.97;0.53;;;20.20;45.20;;;;;;5086960;28;20025;-44
2024/04/07 01:30:23;;;;;;;0.63;0.63;;;20.20;45.20;;;;;;5074573;28;20330;-46
2024/04/07 01:32:49;;;;;;;0.70;0.70;;;20.20;45.30;;;;;;5090968;28;20027;-48
2024/04/07 01:35:16;;;;;;;0.93;0.70;;;20.20;45.30;;;;;;5065632;28;20048;-44
2024/04/07 01:37:42;;;;;;;0.97;0.70;;;20.20;45.30;;;;;;5094714;28;20029;-45
2024/04/07 01:40:10;;;;;;;0.77;0.60;;;20.20;45.40;;;;;;5086837;28;20036;-46
2024/04/07 01:42:36;;;;;;;;;;;20.10;45.40;;;;;;5080582;28;20044;-46
2024/04/07 01:45:04;;;;;;;0.70;0.60;;;20.10;46.00;;;;;;5096426;28;19916;-47
2024/04/07 01:47:31;;;;;;;1.10;0.70;;;20.10;45.50;;;;;;5079733;28;20043;-48
2024/04/07 01:49:59;;;;;;;0.77;0.50;;;20.00;45.40;;;;;;5076934;28;20072;-46
2024/04/07 01:52:25;;;;;;;0.70;0.55;;;20.00;45.40;;;;;;5083261;28;20039;-49
2024/04/07 01:54:57;;;;;;;1.38;0.60;;;20.00;45.50;;;;;;5109813;28;20436;-51
2024/04/07 01:57:27;;;;;;;0.75;0.60;;;20.00;45.50;;;;;;5096198;28;20017;-46
2024/04/07 01:59:56;;;;;;;1.05;0.80;;;20.00;45.60;;;;;;5079910;28;20067;-47
2024/04/07 02:02:23;;;;;;;2.00;0.80;;;19.90;45.60;;;;;;5079236;28;20036;-47
2024/04/07 02:04:50;;;;;;;0.60;0.60;;;19.90;45.60;;;;;;5089204;28;20017;-46
2024/04/07 02:07:19;;;;;;;0.73;0.55;;;19.90;45.70;;;;;;5068712;28;20037;-50
2024/04/07 02:09:49;;;;;;;0.65;0.65;;;19.80;45.70;;;;;;5075998;28;20058;-50
2024/04/07 02:12:19;;;;;;;0.85;0.73;;;19.80;45.70;;;;;;5086598;28;20028;-47
2024/04/07 02:14:48;;;;;;;1.23;0.77;;;19.80;45.80;;;;;;5082509;28;20063;-47
2024/04/07 02:17:15;;;;;;;0.80;0.80;;;19.70;45.70;;;;;;5071122;28;20031;-49
2024/04/07 02:19:41;;;;;;;0.90;0.80;;;19.80;45.90;;;;;;5078083;28;20476;-47
2024/04/07 02:22:10;;;;;;;1.45;0.80;;;19.70;45.90;;;;;;5081690;28;20067;-43
2024/04/07 02:24:38;;;;;;;0.95;0.70;;;19.70;45.90;;;;;;5093377;28;20051;-44
2024/04/07 02:27:09;;;;;;;0.95;0.70;;;19.70;46.00;;;;;;5094272;28;20032;-45
2024/04/07 02:29:39;;;;;;;1.23;0.82;;;19.70;46.00;;;;;;5084801;28;20139;-45
2024/04/07 02:32:06;;;;;;;1.02;0.80;;;19.60;46.00;;;;;;5091103;28;20032;-45
2024/04/07 02:34:32;;;;;;;0.85;0.75;;;19.60;46.10;;;;;;5082786;28;20033;-46
2024/04/07 02:36:59;;;;;;;1.30;1.00;;;19.60;46.10;;;;;;5071780;28;20053;-45
2024/04/07 02:39:29;;;;;;;1.08;0.60;;;19.60;46.10;;;;;;5090438;28;20084;-43
2024/04/07 02:41:56;;;;;;;1.00;0.85;;;19.60;46.20;;;;;;5086866;28;20055;-46
2024/04/07 02:48:04;;;;;;;1.10;0.90;;;19.50;46.10;;;;;;5087888;28;20036;-43
2024/04/07 02:49:55;;;;;;;1.58;0.70;;;19.60;46.90;;;;;;5082521;28;20120;-48
2024/04/07 02:52:22;;;;;;;1.08;0.90;;;19.60;47.00;;;;;;5101250;28;20046;-44
2024/04/07 02:54:51;;;;;;;1.20;0.90;;;19.60;47.00;;;;;;5097515;28;20049;-46
2024/04/07 02:57:19;;;;;;;1.75;0.80;;;19.50;46.90;;;;;;5084729;28;20048;-44
2024/04/07 02:59:51;;;;;;;1.02;0.80;;;19.50;46.90;;;;;;5071222;28;20033;-49
2024/04/07 03:02:20;;;;;;;3.10;0.90;;;19.50;46.90;;;;;;5069369;28;20116;-45
2024/04/07 03:04:49;;;;;;;0.90;0.80;;;19.50;46.90;;;;;;5082275;28;20036;-46
2024/04/07 03:07:16;;;;;;;1.30;0.80;;;19.50;47.00;;;;;;5078447;28;20063;-49
2024/04/07 03:09:47;;;;;;;0.70;0.70;;;19.50;47.40;;;;;;5072750;28;20037;-44
2024/04/07 03:12:17;;;;;;;0.98;0.82;;;19.50;47.50;;;;;;5082207;28;20028;-46
2024/04/07 03:14:45;;;;;;;1.00;0.70;;;19.50;47.60;;;;;;5090203;28;20025;-44
2024/04/07 03:17:11;;;;;;;0.90;0.65;;;19.50;47.50;;;;;;5087990;28;20111;-48
2024/04/07 03:19:38;;;;;;;1.70;0.80;;;19.50;47.40;;;;;;5082476;28;20037;-44
2024/04/07 03:22:04;;;;;;;0.67;0.67;;;19.40;47.40;;;;;;5081289;28;20032;-46
2024/04/07 03:24:34;;;;;;;0.90;0.70;;;19.40;47.30;;;;;;5091071;28;20348;-46
2024/04/07 03:27:00;;;;;;;1.15;0.90;;;19.40;47.30;;;;;;5068928;28;20032;-46
2024/04/07 03:29:26;;;;;;;1.45;0.85;;;19.40;47.30;;;;;;5074857;28;20107;-45
2024/04/07 03:31:52;;;;;;;0.93;0.73;;;19.40;47.70;;;;;;5078539;28;20024;-45
2024/04/07 03:34:23;;;;;;;1.38;0.60;;;19.40;47.80;;;;;;5070418;28;20029;-45
2024/04/07 03:36:49;;;;;;;0.98;0.70;;;19.40;47.80;;;;;;5082112;28;20036;-44
2024/04/07 03:39:17;;;;;;;0.90;0.70;;;19.40;47.70;;;;;;5079230;28;20037;-45
2024/04/07 03:41:43;;;;;;;;;;;19.40;48.30;;;;;;5076584;28;20058;-48
2024/04/07 03:44:09;;;;;;;0.98;0.63;;;19.40;47.70;;;;;;5086972;28;19919;-46
2024/04/07 03:46:37;;;;;;;0.70;0.55;;;19.40;47.70;;;;;;5091002;28;20054;-44
2024/04/07 03:49:03;;;;;;;0.95;0.80;;;19.30;47.60;;;;;;5081381;28;20101;-45
2024/04/07 03:51:30;;;;;;;0.60;0.60;;;19.30;47.70;;;;;;5070698;28;20116;-44
2024/04/07 03:53:57;;;;;;;1.35;0.70;;;19.40;48.00;;;;;;5073921;28;20074;-44
2024/04/07 03:56:23;;;;;;;0.93;0.70;;;19.40;48.10;;;;;;5081283;28;20502;-44
2024/04/07 03:58:50;;;;;;;0.90;0.80;;;19.40;48.10;;;;;;5074667;28;20124;-44
2024/04/07 04:01:16;;;;;;;1.20;0.70;;;19.40;48.10;;;;;;5075911;28;20062;-45
2024/04/07 04:03:42;;;;;;;1.05;0.63;;;19.40;48.00;;;;;;5079950;28;20050;-47
2024/04/07 04:06:10;;;;;;;1.17;0.65;;;19.30;47.90;;;;;;5081243;28;20083;-44
2024/04/07 04:08:37;;;;;;;1.27;0.73;;;19.30;48.00;;;;;;5092639;28;20732;-45
2024/04/07 04:11:04;;;;;;;1.15;0.70;;;19.30;47.90;;;;;;5091820;28;20651;-43
2024/04/07 04:13:31;;;;;;;0.95;0.80;;;19.30;48.00;;;;;;5082817;28;20035;-46
2024/04/07 04:15:59;;;;;;;0.90;0.80;;;19.30;48.30;;;;;;5082182;28;20058;-44
2024/04/07 04:18:26;;;;;;;0.70;0.60;;;19.40;48.30;;;;;;5089841;28;20032;-44
2024/04/07 04:20:52;;;;;;;0.70;0.70;;;19.40;48.30;;;;;;5084739;28;20060;-45
2024/04/07 04:23:18;;;;;;;0.88;0.52;;;19.30;48.20;;;;;;5082936;28;20055;-44
2024/04/07 04:25:54;;;;;;;1.13;0.90;;;19.30;48.20;;;;;;5098578;28;20040;-46
2024/04/07 04:28:21;;;;;;;1.10;1.00;;;19.30;48.20;;;;;;5087970;28;20382;-44
2024/04/07 04:31:16;;;;;;;1.75;0.60;;;19.30;48.20;;;;;;5077444;28;20041;-47
2024/04/07 04:33:42;;;;;;;1.02;0.80;;;19.20;48.80;;;;;;5076270;28;20085;-46
2024/04/07 04:36:13;;;;;;;1.10;0.90;;;19.30;48.50;;;;;;5092719;28;20040;-43
2024/04/07 04:38:39;;;;;;;0.95;0.80;;;19.30;48.50;;;;;;5070319;28;20029;-44
2024/04/07 04:41:05;;;;;;;1.40;0.80;;;19.30;48.50;;;;;;5086587;28;20036;-47
2024/04/07 04:43:31;;;;;;;0.93;0.70;;;19.30;48.50;;;;;;5086703;28;20118;-43
2024/04/07 04:46:04;;;;;;;1.20;0.77;;;19.30;48.40;;;;;;5085390;28;20120;-43
2024/04/07 04:48:34;;;;;;;1.30;0.98;;;19.30;48.40;;;;;;5085497;28;20041;-44
2024/04/07 04:51:00;;;;;;;1.10;0.80;;;19.20;48.40;;;;;;5073086;28;20044;-47
2024/04/07 04:53:27;;;;;;;1.50;1.00;;;19.20;48.50;;;;;;5081322;28;20035;-42
2024/04/07 04:55:53;;;;;;;2.28;1.02;;;19.30;48.70;;;;;;5086509;28;20033;-46
2024/04/07 04:58:19;;;;;;;1.13;0.90;;;19.30;48.70;;;;;;5085327;28;20092;-47
2024/04/07 05:00:48;;;;;;;1.33;1.10;;;19.30;48.60;;;;;;5090530;28;20047;-43
2024/04/07 05:03:15;;;;;;;1.30;1.00;;;19.30;48.60;;;;;;5085516;28;20080;-43
2024/04/07 05:05:41;;;;;;;1.73;1.33;;;19.30;48.60;;;;;;5097750;28;20028;-47
2024/04/07 05:08:07;;;;;;;1.45;1.25;;;19.20;48.50;;;;;;5087954;28;20082;-43
2024/04/07 05:10:34;;;;;;;1.38;1.05;;;19.20;48.50;;;;;;5091592;28;20039;-43
2024/04/07 05:13:00;;;;;;;1.27;1.10;;;19.20;48.50;;;;;;5082672;28;20047;-43
2024/04/07 05:15:27;;;;;;;1.27;1.10;;;19.20;48.70;;;;;;5085060;28;20048;-44
2024/04/07 05:17:53;;;;;;;1.30;1.10;;;19.20;48.80;;;;;;5092272;28;20025;-43
2024/04/07 05:20:19;;;;;;;1.40;1.30;;;19.30;48.70;;;;;;5090744;28;20296;-44
2024/04/07 05:22:45;;;;;;;1.70;1.17;;;19.20;48.70;;;;;;5087716;28;20145;-45
2024/04/07 05:25:12;;;;;;;2.17;1.20;;;19.20;48.70;;;;;;5081238;28;20762;-44
2024/04/07 05:27:38;;;;;;;1.42;1.10;;;19.20;48.70;;;;;;5090110;28;20035;-44
2024/04/07 05:30:05;;;;;;;1.83;1.38;;;19.20;48.60;;;;;;5093156;28;20020;-44
2024/04/07 05:32:32;;;;;;;1.48;1.27;;;19.20;48.60;;;;;;5090175;28;20033;-46
2024/04/07 05:34:59;;;;;;;1.40;1.30;;;19.20;48.80;;;;;;5076943;28;20037;-44
2024/04/07 05:37:26;;;;;;;;;;;19.20;48.80;;;;;;5095415;28;20035;-46
2024/04/07 05:39:53;;;;;;;1.73;1.23;;;19.20;48.80;;;;;;5079102;28;19990;-44
2024/04/07 05:42:19;;;;;;;2.00;1.60;;;19.20;48.80;;;;;;5082301;28;20029;-44
2024/04/07 05:44:45;;;;;;;1.40;1.30;;;19.20;48.80;;;;;;5085193;28;20024;-47
2024/04/07 05:47:12;;;;;;;1.88;1.38;;;19.20;48.70;;;;;;5096303;28;20035;-44
2024/04/07 05:49:38;;;;;;;1.60;1.40;;;19.20;48.70;;;;;;5081985;28;20145;-44
2024/04/07 05:52:07;;;;;;;1.77;1.33;;;19.10;48.80;;;;;;5099665;28;20069;-43
2024/04/07 05:54:33;;;;;;;1.60;1.40;;;19.20;49.00;;;;;;5084871;28;20092;-47
2024/04/07 05:56:59;;;;;;;1.90;1.40;;;19.20;49.00;;;;;;5081559;28;20031;-47
2024/04/07 05:59:26;;;;;;;1.80;1.42;;;19.20;48.90;;;;;;5095328;28;20028;-45
2024/04/07 06:01:53;;;;;;;1.63;1.40;;;19.20;48.90;;;;;;5077804;28;20095;-45
2024/04/07 06:04:19;;;;;;;2.20;1.60;;;19.20;48.90;;;;;;5092536;28;20036;-45
2024/04/07 06:06:47;;;;;;;2.30;1.60;;;19.10;48.90;;;;;;5092832;28;20032;-44
2024/04/07 06:09:14;;;;;;;1.90;1.45;;;19.10;48.80;;;;;;5079190;28;20038;-45
2024/04/07 06:11:41;;;;;;;1.98;1.48;;;19.10;49.10;;;;;;5092816;28;20033;-44
2024/04/07 06:14:09;;;;;;;2.13;1.50;;;19.20;49.20;;;;;;5090029;28;20052;-45
2024/04/07 06:16:37;;;;;;;2.13;1.70;;;19.20;49.10;;;;;;5101783;28;20035;-46
2024/04/07 06:19:05;;;;;;;1.50;1.40;;;19.20;49.10;;;;;;5088316;28;20044;-45
2024/04/07 06:21:31;;;;;;;1.88;1.50;;;19.20;49.10;;;;;;5068102;28;20036;-44
2024/04/07 06:23:57;;;;;;;2.10;1.70;;;19.10;49.00;;;;;;5072526;28;20033;-44
2024/04/07 06:26:24;;;;;;;2.85;1.50;;;19.10;49.00;;;;;;5065963;28;20067;-45
2024/04/07 06:28:50;;;;;;;1.98;1.55;;;19.00;49.10;;;;;;5066707;28;20052;-44
2024/04/07 06:31:17;;;;;;;1.80;1.45;;;19.10;49.20;;;;;;5069341;28;20104;-44
2024/04/07 06:33:43;;;;;;;2.03;1.55;;;19.20;49.30;;;;;;5069197;28;20033;-46
2024/04/07 06:36:09;;;;;;;2.50;1.70;;;19.20;49.30;;;;;;5071710;28;20048;-45
2024/04/07 06:38:35;;;;;;;1.85;1.63;;;19.10;49.10;;;;;;5061096;28;20401;-46
2024/04/07 06:41:02;;;;;;;2.30;1.50;;;19.10;49.10;;;;;;5064618;28;20039;-46
2024/04/07 06:43:28;;;;;;;1.80;1.58;;;19.10;49.10;;;;;;5064777;28;20029;-45
2024/04/07 06:45:57;;;;;;;2.03;1.50;;;19.00;49.10;;;;;;5062707;28;20036;-48
2024/04/07 06:48:24;;;;;;;1.60;1.42;;;19.00;49.20;;;;;;5064705;28;20052;-44
2024/04/07 06:50:51;;;;;;;2.13;1.57;;;19.10;49.30;;;;;;5069265;28;20049;-51
2024/04/07 06:53:17;;;;;;;3.10;2.00;;;19.20;49.30;;;;;;5069100;28;20312;-45
2024/04/07 06:55:44;;;;;;;2.15;1.60;;;19.20;49.30;;;;;;5068218;28;20632;-47
2024/04/07 06:58:10;;;;;;;2.10;1.88;;;19.10;49.20;;;;;;5074056;28;20111;-44
2024/04/07 07:00:36;;;;;;;1.95;1.50;;;19.10;49.20;;;;;;5066466;28;20040;-46
2024/04/07 07:03:02;;;;;;;1.80;1.50;;;19.00;49.20;;;;;;5067236;28;20037;-49
2024/04/07 07:05:29;;;;;;;1.70;1.60;;;19.00;49.20;;;;;;5067813;28;20036;-48
2024/04/07 07:07:55;;;;;;;2.10;1.90;;;19.00;49.30;;;;;;5077146;28;20024;-50
2024/04/07 07:10:21;;;;;;;2.37;1.90;;;19.10;49.40;;;;;;5091307;28;20067;-48
2024/04/07 07:12:47;;;;;;;2.00;1.70;;;19.20;49.40;;;;;;5093392;28;20043;-47
2024/04/07 07:15:14;;;;;;;2.47;1.85;;;19.10;49.30;;;;;;5097233;28;20050;-48
2024/04/07 07:17:40;;;;;;;2.05;1.65;;;19.10;49.30;;;;;;5084173;28;20029;-50
2024/04/07 07:20:06;;;;;;;3.58;1.80;;;19.10;49.30;;;;;;5079130;28;20600;-51
2024/04/07 07:22:33;;;;;;;2.57;2.03;;;19.00;49.30;;;;;;5082888;28;20036;-47
2024/04/07 07:24:59;;;;;;;2.30;2.10;;;19.00;49.30;;;;;;5083008;28;20087;-48
2024/04/07 07:27:25;;;;;;;2.47;1.77;;;19.00;49.40;;;;;;5075715;28;20085;-46
2024/04/07 07:29:51;;;;;;;2.72;1.90;;;19.10;49.40;;;;;;5065443;28;20830;-47
2024/04/07 07:32:17;;;;;;;3.38;2.30;;;19.10;49.40;;;;;;5070906;28;20028;-50
2024/04/07 07:34:43;;;;;;;2.42;2.17;;;19.10;49.30;;;;;;5075352;28;20036;-45
2024/04/07 07:37:09;;;;;;;2.28;2.05;;;19.00;49.30;;;;;;5089859;28;20111;-49
2024/04/07 07:39:36;;;;;;;2.72;2.22;;;19.00;49.30;;;;;;5091016;28;20032;-50
2024/04/07 07:42:02;;;;;;;3.05;2.60;;;19.00;49.30;;;;;;5089659;28;20033;-48
2024/04/07 07:44:28;;;;;;;2.50;2.30;;;19.00;49.40;;;;;;5066573;28;20811;-45
2024/04/07 07:46:55;;;;;;;2.60;2.38;;;19.00;49.40;;;;;;5071856;28;20028;-51
2024/04/07 07:49:21;;;;;;;2.25;2.05;;;19.10;49.40;;;;;;5070196;28;20899;-50
2024/04/07 07:51:47;;;;;;;3.28;2.33;;;19.10;49.40;;;;;;5071935;28;20048;-45
2024/04/07 07:54:14;;;;;;;2.88;2.30;;;19.00;49.30;;;;;;5079027;28;20036;-45
2024/04/07 07:56:40;;;;;;;3.55;2.33;;;19.00;49.30;;;;;;5088362;28;20100;-45
2024/04/07 07:59:06;;;;;;;2.75;2.40;;;19.00;49.30;;;;;;5090818;28;20017;-47
2024/04/07 08:01:32;;;;;;;2.97;2.40;;;19.00;49.40;;;;;;5090706;28;20119;-45
2024/04/07 08:03:58;;;;;;;2.60;2.40;;;19.00;49.50;;;;;;5094136;28;20016;-45
2024/04/07 08:06:25;;;;;;;2.95;2.58;;;19.00;49.40;;;;;;5079401;28;20107;-45
2024/04/07 08:08:51;;;;;;;3.35;2.55;;;19.00;49.40;;;;;;5069117;28;20028;-46
2024/04/07 08:11:17;;;;;;;3.03;2.50;;;19.00;49.40;;;;;;5066689;28;20915;-45
2024/04/07 08:13:43;;;;;;;3.70;2.92;;;19.00;49.40;;;;;;5073667;28;20048;-45
2024/04/07 08:16:09;;;;;;;2.92;2.63;;;19.00;49.40;;;;;;5080346;28;20442;-46
2024/04/07 08:18:36;;;;;;;2.88;2.50;;;18.90;49.40;;;;;;5082825;28;20036;-45
2024/04/07 08:21:03;;;;;;;3.03;2.70;;;19.00;49.60;;;;;;5078449;28;20044;-46
2024/04/07 08:23:29;;;;;;;2.88;2.38;;;19.00;49.50;;;;;;5074038;28;20080;-46
2024/04/07 08:25:56;;;;;;;3.17;2.80;;;19.00;49.50;;;;;;5073686;28;20101;-45
2024/04/07 08:28:24;;;;;;;3.05;2.75;;;19.00;49.50;;;;;;5088139;28;20028;-49
2024/04/07 08:30:50;;;;;;;3.42;2.53;;;19.00;49.50;;;;;;5074324;28;20043;-48
2024/04/07 08:33:16;;;;;;;2.75;2.55;;;18.90;49.40;;;;;;5089149;28;20456;-50
2024/04/07 08:35:43;;;;;;;3.37;2.90;;;18.90;49.60;;;;;;5090794;28;20052;-47
2024/04/07 08:38:09;;;;;;;3.20;2.72;;;19.00;49.60;;;;;;5075920;28;20920;-46
2024/04/07 08:40:35;;;;;;;3.85;2.85;;;19.00;49.60;;;;;;5082894;28;20045;-48
2024/04/07 08:43:03;;;;;;;3.63;3.00;;;19.00;49.60;;;;;;5070357;28;20037;-49
2024/04/07 08:45:29;;;;;;;;;;;19.00;49.60;;;;;;5078088;28;20165;-48
2024/04/07 08:47:55;;;;;;;2.97;2.55;;;19.00;49.60;;;;;;5076215;28;20541;-49
2024/04/07 08:50:21;;;;;;;3.33;3.03;;;18.90;49.60;;;;;;5070174;28;20570;-48
2024/04/07 08:52:47;;;;;;;3.67;2.97;;;18.90;49.70;;;;;;5068388;28;20036;-46
2024/04/07 08:55:13;;;;;;;3.55;2.90;;;19.00;49.70;;;;;;5072517;28;20040;-47
2024/04/07 08:57:39;;;;;;;3.63;3.13;;;19.00;49.70;;;;;;5065198;28;20028;-47
2024/04/07 09:00:08;;;;;;;3.42;3.13;;;19.00;49.70;;;;;;5063833;28;20032;-46
2024/04/07 09:02:34;;;;;;;3.20;2.85;;;19.00;49.70;;;;;;5066229;28;20099;-44
2024/04/07 09:05:00;;;;;;;3.38;2.60;;;18.90;49.60;;;;;;5079790;28;20052;-48
2024/04/07 09:07:27;;;;;;;3.25;2.95;;;18.90;49.60;;;;;;5066860;28;20044;-45
2024/04/07 09:09:53;;;;;;;3.47;2.92;;;18.90;49.70;;;;;;5067597;28;20024;-46
2024/04/07 09:12:19;;;;;;;3.20;2.88;;;19.00;49.80;;;;;;5065049;28;20028;-48
2024/04/07 09:14:49;;;;;;;4.03;3.38;;;19.00;49.80;;;;;;5069324;28;20132;-47
2024/04/07 09:17:15;;;;;;;3.65;2.85;;;19.00;49.80;;;;;;5063809;28;21286;-47
2024/04/07 09:19:42;;;;;;;4.88;3.10;;;19.00;49.70;;;;;;5083933;28;20036;-49
2024/04/07 09:22:08;;;;;;;3.63;2.85;;;18.90;49.70;;;;;;5104196;28;20084;-46
2024/04/07 09:24:35;;;;;;;3.45;3.00;;;18.90;49.70;;;;;;5089804;28;20111;-48
2024/04/07 09:27:06;;;;;;;3.67;3.10;;;18.90;49.80;;;;;;5089849;28;20028;-50
2024/04/07 09:29:38;;;;;;;3.53;2.92;;;18.90;49.90;;;;;;5102493;28;20065;-45
2024/04/07 09:32:04;;;;;;;4.15;3.00;;;19.00;49.80;;;;;;5071911;28;20033;-46
2024/04/07 09:34:35;;;;;;;3.30;2.70;;;19.00;49.80;;;;;;5078040;28;20033;-49
2024/04/07 09:37:04;;;;;;;3.40;2.97;;;18.90;49.80;;;;;;5083732;28;20024;-46
2024/04/07 09:39:31;;;;;;;3.35;2.88;;;18.90;49.80;;;;;;5090101;28;20035;-46
2024/04/07 09:42:01;;;;;;;3.78;2.92;;;18.90;49.70;;;;;;5093351;28;20039;-47
2024/04/07 09:44:34;;;;;;;3.65;3.00;;;18.90;49.80;;;;;;5091977;28;20036;-47
2024/04/07 09:47:06;;;;;;;3.35;3.05;;;18.90;49.90;;;;;;5085018;28;20715;-45
2024/04/07 09:49:37;;;;;;;4.25;3.17;;;19.00;49.90;;;;;;5088652;28;20122;-46
2024/04/07 09:52:10;;;;;;;3.50;3.20;;;19.00;49.80;;;;;;5077217;28;20028;-46
2024/04/07 09:54:45;;;;;;;3.60;3.20;;;18.90;49.80;;;;;;5099110;28;20032;-51
2024/04/07 09:57:16;;;;;;;4.97;3.50;;;18.90;49.80;;;;;;5098039;28;20036;-49
2024/04/07 09:59:48;;;;;;;3.85;3.20;;;18.90;49.80;;;;;;5090580;28;20048;-50
2024/04/07 10:02:14;;;;;;;4.90;3.25;;;18.90;49.90;;;;;;5089724;28;20028;-48
2024/04/07 10:04:41;;;;;;;4.13;3.42;;;18.90;49.90;;;;;;5088363;28;20048;-46
2024/04/07 10:07:10;;;;;;;3.78;3.30;;;19.00;49.90;;;;;;5092671;28;20047;-47
2024/04/07 10:09:36;;;;;;;3.63;3.25;;;18.90;49.80;;;;;;5081978;28;20086;-45
2024/04/07 10:12:02;;;;;;;5.00;3.45;;;18.90;49.80;;;;;;5093147;28;20029;-48
2024/04/07 10:14:39;;;;;;;3.47;3.17;;;18.90;49.80;;;;;;5091415;28;20028;-46
2024/04/07 10:17:09;;;;;;;3.45;3.13;;;18.80;49.80;;;;;;5078408;28;20058;-46
2024/04/07 10:19:45;;;;;;;3.72;3.30;;;18.90;50.00;;;;;;5062416;28;20040;-47
2024/04/07 10:22:12;;;;;;;3.83;3.15;;;18.90;49.90;;;;;;5091268;28;20028;-49
2024/04/07 10:24:40;;;;;;;3.75;3.05;;;18.90;49.90;;;;;;5099948;28;20028;-45
2024/04/07 10:27:08;;;;;;;4.20;3.50;;;18.90;49.80;;;;;;5089519;28;20052;-48
2024/04/07 10:29:35;;;;;;;4.20;3.40;;;18.90;49.80;;;;;;5074763;28;20044;-48
2024/04/07 10:32:03;;;;;;;4.38;3.60;;;18.90;49.80;;;;;;5077466;28;20035;-47
2024/04/07 10:34:29;;;;;;;4.03;3.47;;;18.80;49.90;;;;;;5091882;28;20061;-44
2024/04/07 10:36:58;;;;;;;3.85;3.47;;;18.90;49.90;;;;;;5083049;28;20092;-44
2024/04/07 10:39:25;;;;;;;4.15;3.42;;;18.90;49.90;;;;;;5075149;28;20020;-44
2024/04/07 10:41:51;;;;;;;4.63;3.60;;;18.90;49.80;;;;;;5079156;28;20063;-46
2024/04/07 10:44:20;;;;;;;3.95;3.55;;;18.90;49.90;;;;;;5091310;28;20032;-47
2024/04/07 10:46:46;;;;;;;4.60;3.67;;;18.90;49.90;;;;;;5089931;28;20024;-48
2024/04/07 10:49:13;;;;;;;3.90;3.38;;;18.80;49.80;;;;;;5074629;28;20056;-46
2024/04/07 10:51:39;;;;;;;4.43;3.53;;;18.80;49.90;;;;;;5080029;28;20028;-48
2024/04/07 10:54:06;;;;;;;4.15;3.45;;;18.90;50.00;;;;;;5081137;28;20320;-50
2024/04/07 10:56:33;;;;;;;4.13;3.55;;;18.90;49.90;;;;;;5092131;28;20047;-45
2024/04/07 10:58:59;;;;;;;3.95;3.45;;;18.90;49.90;;;;;;5102199;28;20028;-46
2024/04/07 11:01:25;;;;;;;4.10;3.53;;;18.90;49.90;;;;;;5102419;28;20377;-49
2024/04/07 11:03:53;;;;;;;4.15;3.53;;;18.90;49.90;;;;;;5081652;28;20036;-45
2024/04/07 11:06:23;;;;;;;4.32;3.90;;;18.80;49.80;;;;;;5082758;28;20070;-45
2024/04/07 11:08:50;;;;;;;4.75;3.47;;;18.80;50.50;;;;;;5095292;28;20066;-47
2024/04/07 11:11:16;;;;;;;4.75;3.97;;;18.90;50.00;;;;;;5070226;28;20033;-47
2024/04/07 11:13:42;;;;;;;4.90;4.00;;;18.90;49.90;;;;;;5091719;28;20036;-46
2024/04/07 11:16:09;;;;;;;5.05;4.50;;;18.90;49.90;;;;;;5101935;28;20564;-45
2024/04/07 11:18:36;;;;;;;3.75;3.30;;;18.90;49.90;;;;;;5084214;28;20389;-49
2024/04/07 11:21:04;;;;;;;5.28;3.80;;;18.90;49.80;;;;;;5086835;28;20028;-51
2024/04/07 11:23:30;;;;;;;5.65;3.90;;;18.80;49.80;;;;;;5083320;28;20032;-48
2024/04/07 11:25:56;;;;;;;4.35;3.95;;;18.80;49.90;;;;;;5093542;28;20024;-49
2024/04/07 11:28:24;;;;;;;4.40;3.92;;;18.90;50.00;;;;;;5093770;28;20028;-50
2024/04/07 11:30:51;;;;;;;4.68;3.83;;;18.90;49.90;;;;;;5081336;28;20032;-49
2024/04/07 11:33:17;;;;;;;4.38;3.85;;;18.90;49.90;;;;;;5081998;28;20058;-50
2024/04/07 11:35:44;;;;;;;5.18;3.97;;;18.90;49.80;;;;;;5073951;28;20088;-48
2024/04/07 11:38:11;;;;;;;4.53;4.13;;;18.80;49.80;;;;;;5075213;28;20033;-48
2024/04/07 11:40:38;;;;;;;4.35;3.95;;;18.80;49.80;;;;;;5074398;28;20036;-48
2024/04/07 11:43:04;;;;;;;5.53;4.60;;;18.80;49.90;;;;;;5084478;28;20058;-45
2024/04/07 11:45:31;;;;;;;5.60;4.78;;;18.90;49.80;;;;;;5081595;28;20056;-49
2024/04/07 11:47:59;;;;;;;5.05;4.43;;;18.90;49.80;;;;;;5080180;28;20025;-48
2024/04/07 11:50:25;;;;;;;6.00;4.55;;;18.90;49.80;;;;;;5086424;28;20056;-51
2024/04/07 11:52:51;;;;;;;5.55;4.78;;;18.80;49.80;;;;;;5092155;28;20020;-46
2024/04/07 11:55:17;;;;;;;6.15;4.63;;;18.80;49.80;;;;;;5093397;28;20036;-46
2024/04/07 11:57:43;;;;;;;7.25;4.95;;;18.80;49.90;;;;;;5091389;28;20067;-48
2024/04/07 12:00:10;;;;;;;6.03;5.25;;;18.80;49.90;;;;;;5075810;28;20076;-47
2024/04/07 12:02:37;;;;;;;5.22;4.72;;;18.90;49.90;;;;;;5087428;28;20048;-44
2024/04/07 12:05:03;;;;;;;5.10;4.47;;;18.90;49.80;;;;;;5087567;28;20154;-44
2024/04/07 12:07:30;;;;;;;5.70;5.10;;;18.80;49.80;;;;;;5088281;28;20115;-44
2024/04/07 12:09:57;;;;;;;6.22;5.60;;;18.80;49.80;;;;;;5083240;28;20315;-46
2024/04/07 12:12:24;;;;;;;5.93;5.32;;;18.80;49.80;;;;;;5088703;28;20054;-45
2024/04/07 12:14:50;;;;;;;6.32;5.07;;;18.80;49.90;;;;;;5082064;28;20071;-44
2024/04/07 12:17:17;;;;;;;5.77;5.27;;;18.80;49.90;;;;;;5084761;28;20036;-44
2024/04/07 12:19:43;;;;;;;6.38;5.53;;;18.90;49.90;;;;;;5071804;28;20122;-46
2024/04/07 12:22:15;;;;;;;6.10;5.47;;;18.90;49.90;;;;;;5088023;28;20059;-44
2024/04/07 12:24:42;;;;;;;6.68;5.97;;;18.80;49.80;;;;;;5080850;28;20029;-45
2024/04/07 12:27:08;;;;;;;7.07;5.70;;;18.80;49.90;;;;;;5082283;28;20119;-45
2024/04/07 12:29:34;;;;;;;6.28;5.55;;;18.80;49.90;;;;;;5090533;28;20047;-45
2024/04/07 12:32:01;;;;;;;6.22;5.63;;;18.80;49.90;;;;;;5082232;28;20052;-44
2024/04/07 12:34:27;;;;;;;7.18;5.80;;;18.90;49.90;;;;;;5082264;28;20446;-43
2024/04/07 12:36:53;;;;;;;6.70;6.00;;;18.90;49.90;;;;;;5090188;28;20040;-44
2024/04/07 12:39:19;;;;;;;6.40;5.80;;;18.80;49.80;;;;;;5089412;28;20120;-43
2024/04/07 12:41:49;;;;;;;7.70;6.00;;;18.80;49.80;;;;;;5083761;28;20040;-43
2024/04/07 12:44:16;;;;;;;6.70;5.88;;;18.80;49.80;;;;;;5087372;28;20042;-45
2024/04/07 12:46:43;;;;;;;;;;;18.80;49.80;;;;;;5091977;28;20029;-47
2024/04/07 12:49:10;;;;;;;6.53;5.93;;;18.90;49.80;;;;;;5094083;28;19916;-43
2024/04/07 12:51:36;;;;;;;6.72;6.03;;;18.90;49.70;;;;;;5084290;28;20032;-45